Trenton, MI (48183)

3:14 PM EDT on July 02, 2015 (GMT -0400)
Riverview Land Preserve ticket booth | | Change Station
CLOSE
Current Station
Personal Weather Station
Location: Riverview, MI
Elevation: 642 ft
Nearby Weather Stations

Elev 642 ft 42.16 °N, 83.21 °W | Updated 12 minutes ago

Partly Cloudy
Partly Cloudy
71.3 °F
Feels Like 76 °F
N
10.0
Wind Variable Wind from ESE
Gusts 14.0 mph

Today
High -- | Low -- °F
--% Chance of Precip.
Yesterday
High -- | Low -- °F
Precip. -- in
6:01 AM 9:12 PM
Full, 99% visible
Pressure 29.97 in
Visibility 10.0 miles
Clouds Scattered Clouds 4800 ft
Heat Index 76 °F
Dew Point 55 °F
Humidity 56%
Rainfall 0.00 in
Snow Depth Not available.
UV 9 out of 12
Pollen 2.40 out of 12
Air Quality Not available.
Flu Activity Not available.
METAR KONZ 021854Z AUTO 07007KT 10SM SCT048 22/12 A2997 RMK AO2

More Conditions Fewer Conditions

Pressure 29.97 in
Visibility 10.0 miles
Clouds Scattered Clouds 4800 ft
Heat Index 76 °F
Dew Point 55 °F
Humidity 56%
Rainfall 0.00 in
Snow Depth Not available.
UV 9 out of 12
Pollen 2.40 out of 12
Air Quality Not available.
Flu Activity Not available.
METAR KONZ 021854Z AUTO 07007KT 10SM SCT048 22/12 A2997 RMK AO2

More Conditions Fewer Conditions

10-Day Weather Forecast

×

Almanac

Astronomy

Jul. 02, 2015 Rise Set
Actual Time
Civil Twilight
Nautical Twilight
Astronomical Twilight
Moon
Length of Visible Light
Length of Day
Tomorrow will be .
, % of the Moon is Illuminated

Today's Extremes

State Highs State Lows

Community

WunderPhotos

Upload Photos

1,834,517 photos uploaded!

WunderBlogs® & News

Nearby

Air Quality

  Air Quality AQ Index Pollutant
Not available.

Snow Depth

Station Depth Elevation

Earthquake Activity

City Distance Mag. Time & Date
Minimum magnitude displayed is 2.5.

Coastal Water Temperatures

Place Temperature

Stations

Nearby Weather Stations

Station Location Temp. Windchill Dew Point Humidity Wind Precip. Elev Updated Type